createdAt,value
2023-04-18T00:00:50.297Z,78.30
2023-04-18T00:03:29.278Z,79.97
2023-04-18T00:05:58.131Z,80.28
2023-04-18T00:08:25.424Z,79.60
2023-04-18T00:10:53.022Z,77.99
2023-04-18T00:13:20.636Z,77.39
2023-04-18T00:15:51.713Z,77.64
2023-04-18T00:18:22.181Z,75.33
2023-04-18T00:20:51.234Z,76.77
2023-04-18T00:23:19.793Z,76.53
2023-04-18T00:25:49.853Z,77.16
2023-04-18T00:28:21.398Z,77.42
2023-04-18T00:30:52.265Z,73.33
2023-04-18T00:33:29.368Z,75.81
2023-04-18T00:35:59.329Z,72.04
2023-04-18T00:38:30.542Z,73.24
2023-04-18T00:41:02.191Z,70.08
2023-04-18T00:43:29.879Z,69.11
2023-04-18T00:46:03.743Z,69.46
2023-04-18T00:48:36.647Z,70.33
2023-04-18T00:51:09.990Z,70.43
2023-04-18T00:53:40.150Z,68.34
2023-04-18T00:56:08.107Z,70.71
2023-04-18T00:58:41.081Z,72.17
2023-04-18T01:01:11.150Z,70.41
2023-04-18T01:03:40.052Z,72.34
2023-04-18T01:06:18.425Z,71.79
2023-04-18T01:08:54.003Z,68.84
2023-04-18T01:11:21.780Z,68.68
2023-04-18T01:14:07.629Z,69.38
2023-04-18T01:16:37.970Z,71.11
2023-04-18T01:19:06.062Z,70.20
2023-04-18T01:21:37.607Z,71.22
2023-04-18T01:24:10.328Z,69.47
2023-04-18T01:26:40.608Z,71.53
2023-04-18T01:29:18.212Z,72.81
2023-04-18T01:31:48.306Z,73.02
2023-04-18T01:34:21.123Z,73.67
2023-04-18T01:36:48.937Z,72.74
2023-04-18T01:39:19.958Z,72.90
2023-04-18T01:41:47.793Z,70.65
2023-04-18T01:44:20.053Z,72.32
2023-04-18T01:46:47.855Z,71.22
2023-04-18T01:49:16.654Z,73.10
2023-04-18T01:51:46.465Z,72.89
2023-04-18T01:54:15.723Z,72.50
2023-04-18T01:56:53.245Z,71.95
2023-04-18T01:59:20.972Z,74.36
2023-04-18T02:01:49.130Z,74.39
2023-04-18T02:04:22.082Z,75.40
2023-04-18T02:06:51.283Z,76.40
2023-04-18T02:09:20.762Z,75.56
2023-04-18T02:11:49.390Z,76.02
2023-04-18T02:14:20.036Z,76.26
2023-04-18T02:16:47.920Z,76.85
2023-04-18T02:19:23.360Z,77.82
2023-04-18T02:21:54.417Z,76.56
2023-04-18T02:24:22.209Z,75.97
2023-04-18T02:26:49.829Z,75.78
2023-04-18T02:29:19.665Z,76.61
2023-04-18T02:31:47.493Z,76.23
2023-04-18T02:34:23.629Z,76.28
2023-04-18T02:36:53.473Z,77.32
2023-04-18T02:39:21.442Z,76.41
2023-04-18T02:41:52.622Z,78.88
2023-04-18T02:44:24.941Z,78.53
2023-04-18T02:46:52.548Z,79.04
2023-04-18T02:49:20.413Z,77.57
2023-04-18T02:51:48.685Z,78.54
2023-04-18T02:54:20.663Z,78.22
2023-04-18T02:56:59.257Z,78.24
2023-04-18T02:59:39.243Z,76.68
2023-04-18T03:02:33.069Z,77.34
2023-04-18T03:05:09.846Z,76.46
2023-04-18T03:07:38.176Z,75.99
2023-04-18T03:10:06.487Z,76.43
2023-04-18T03:12:39.424Z,77.17
2023-04-18T03:15:07.936Z,75.31
2023-04-18T03:17:36.734Z,75.76
2023-04-18T03:20:15.976Z,73.25
2023-04-18T03:22:47.088Z,75.30
2023-04-18T03:25:26.805Z,74.13
2023-04-18T03:28:00.038Z,72.07
2023-04-18T03:30:30.421Z,74.40
2023-04-18T03:33:05.655Z,72.78
2023-04-18T03:35:45.422Z,73.00
2023-04-18T03:38:13.075Z,71.41
2023-04-18T03:40:43.271Z,72.15
2023-04-18T03:43:23.064Z,72.06
2023-04-18T03:45:53.893Z,71.99
2023-04-18T03:48:21.607Z,68.51
2023-04-18T03:50:50.663Z,72.16
2023-04-18T03:53:18.407Z,71.11
2023-04-18T03:55:46.177Z,70.33
2023-04-18T03:58:20.636Z,71.82
2023-04-18T04:00:52.850Z,72.06
2023-04-18T04:03:27.013Z,71.48
2023-04-18T04:05:58.311Z,72.82
2023-04-18T04:08:28.134Z,72.73
2023-04-18T04:10:57.648Z,73.88
2023-04-18T04:13:25.614Z,73.20
2023-04-18T04:15:54.413Z,72.54
2023-04-18T04:18:31.059Z,72.22
2023-04-18T04:21:01.589Z,70.95
2023-04-18T04:23:42.080Z,71.41
2023-04-18T04:26:18.978Z,71.40
2023-04-18T04:28:58.915Z,71.70
2023-04-18T04:31:29.043Z,71.02
2023-04-18T04:34:00.171Z,69.34
2023-04-18T04:36:28.228Z,69.34
2023-04-18T04:39:01.073Z,70.48
2023-04-18T04:41:37.800Z,70.41
2023-04-18T04:44:08.362Z,71.01
2023-04-18T04:46:39.591Z,70.80
2023-04-18T04:49:23.328Z,70.80
2023-04-18T04:51:54.130Z,64.82
2023-04-18T04:54:40.568Z,69.76
2023-04-18T04:57:11.162Z,68.69
2023-04-18T04:59:51.628Z,70.21
2023-04-18T05:02:24.530Z,69.67
2023-04-18T05:04:52.739Z,70.63
2023-04-18T05:07:26.223Z,67.82
2023-04-18T05:10:07.097Z,62.39
2023-04-18T05:12:37.248Z,60.95
2023-04-18T05:15:28.586Z,62.24
2023-04-18T05:21:35.954Z,67.85
2023-04-18T05:24:49.167Z,66.90
2023-04-18T05:31:41.777Z,61.26
2023-04-18T05:33:50.849Z,58.84
2023-04-18T05:36:35.808Z,59.06
2023-04-18T05:42:50.368Z,58.19
2023-04-18T05:46:07.985Z,57.95
2023-04-18T05:52:01.375Z,55.30
2023-04-18T05:55:01.430Z,57.27
2023-04-18T05:57:58.210Z,59.22
2023-04-18T06:00:44.270Z,54.82
2023-04-18T06:03:48.135Z,53.61
2023-04-18T06:06:21.284Z,54.49
2023-04-18T06:08:48.990Z,53.10
2023-04-18T06:11:18.770Z,54.40
2023-04-18T06:13:50.552Z,51.56
2023-04-18T06:16:19.238Z,54.59
2023-04-18T06:19:01.055Z,49.69
2023-04-18T06:21:30.538Z,50.83
2023-04-18T06:23:59.430Z,48.70
2023-04-18T06:26:26.961Z,47.62
2023-04-18T06:28:54.507Z,47.81
2023-04-18T06:31:22.343Z,47.08
2023-04-18T06:33:49.932Z,44.68
2023-04-18T06:36:17.520Z,44.74
2023-04-18T06:38:45.575Z,43.93
2023-04-18T06:41:17.940Z,47.59
2023-04-18T06:43:59.680Z,44.99
2023-04-18T06:46:30.649Z,48.83
2023-04-18T06:48:59.997Z,46.42
2023-04-18T06:51:27.719Z,43.42
2023-04-18T06:53:55.330Z,43.17
2023-04-18T06:56:23.846Z,40.26
2023-04-18T06:58:52.906Z,40.33
2023-04-18T07:01:22.225Z,39.71
2023-04-18T07:03:50.008Z,40.27
2023-04-18T07:06:17.872Z,40.53
2023-04-18T07:08:48.933Z,42.25
2023-04-18T07:11:18.815Z,40.49
2023-04-18T07:13:48.355Z,39.65
2023-04-18T07:16:15.998Z,39.19
2023-04-18T07:18:43.665Z,39.43
2023-04-18T07:21:12.475Z,39.92
2023-04-18T07:23:42.476Z,38.72
2023-04-18T07:26:13.435Z,37.94
2023-04-18T07:28:43.183Z,38.20
2023-04-18T07:31:11.775Z,38.59
2023-04-18T07:33:39.430Z,37.69
2023-04-18T07:36:07.298Z,39.25
2023-04-18T07:38:37.805Z,38.39
2023-04-18T07:41:08.660Z,38.68
2023-04-18T07:43:36.529Z,39.54
2023-04-18T07:46:06.532Z,40.42
2023-04-18T07:48:34.262Z,40.42
2023-04-18T07:51:04.310Z,40.22
2023-04-18T07:53:31.968Z,40.54
2023-04-18T07:55:59.694Z,39.70
2023-04-18T07:58:27.383Z,38.57
2023-04-18T08:00:55.230Z,38.78
2023-04-18T08:03:36.755Z,38.59
2023-04-18T08:06:19.479Z,38.92
2023-04-18T08:11:39.362Z,38.43
2023-04-18T08:14:09.721Z,38.44
2023-04-18T08:16:40.258Z,38.89
2023-04-18T08:19:11.061Z,38.91
2023-04-18T08:21:39.567Z,38.88
2023-04-18T08:24:10.771Z,38.11
2023-04-18T08:26:42.457Z,38.22
2023-04-18T08:29:12.143Z,39.59
2023-04-18T08:31:44.665Z,39.43
2023-04-18T08:34:19.547Z,40.42
2023-04-18T08:36:47.634Z,39.59
2023-04-18T08:39:18.077Z,38.97
2023-04-18T08:44:46.043Z,39.68
2023-04-18T08:47:14.884Z,40.82
2023-04-18T08:49:46.537Z,39.39
2023-04-18T08:52:21.860Z,39.55
2023-04-18T08:54:59.216Z,38.96
2023-04-18T08:57:33.944Z,37.39
2023-04-18T09:00:13.363Z,38.17
2023-04-18T09:02:44.373Z,38.04
2023-04-18T09:05:14.989Z,37.38
2023-04-18T09:07:46.391Z,36.67
2023-04-18T09:10:36.740Z,35.36
2023-04-18T09:13:05.693Z,36.53
2023-04-18T09:15:34.489Z,34.38
2023-04-18T09:18:25.363Z,34.75
2023-04-18T09:20:53.377Z,35.76
2023-04-18T09:23:24.709Z,36.17
2023-04-18T09:25:55.799Z,34.60
2023-04-18T09:31:29.882Z,35.28
2023-04-18T09:34:08.350Z,35.29
2023-04-18T09:36:41.798Z,34.39
2023-04-18T09:40:14.925Z,33.61
2023-04-18T09:42:36.684Z,34.28
2023-04-18T09:45:08.556Z,35.34
2023-04-18T09:47:46.637Z,34.45
2023-04-18T09:50:25.223Z,34.95
2023-04-18T09:52:55.139Z,33.66
2023-04-18T09:58:11.499Z,33.43
2023-04-18T10:01:00.259Z,33.39
2023-04-18T10:03:45.416Z,32.11
2023-04-18T10:06:16.895Z,32.75
2023-04-18T10:08:45.964Z,32.48
2023-04-18T10:11:14.272Z,34.66
2023-04-18T10:13:46.415Z,33.90
2023-04-18T10:16:15.019Z,33.64
2023-04-18T10:18:43.404Z,35.18
2023-04-18T10:21:11.809Z,33.70
2023-04-18T10:23:40.741Z,32.97
2023-04-18T10:26:10.608Z,31.14
2023-04-18T10:29:09.203Z,30.30
2023-04-18T10:31:39.385Z,29.12
2023-04-18T10:34:07.544Z,27.64
2023-04-18T10:36:37.537Z,27.64
2023-04-18T10:39:32.369Z,26.75
2023-04-18T10:41:59.903Z,26.06
2023-04-18T10:44:30.029Z,26.74
2023-04-18T10:47:04.946Z,27.78
2023-04-18T10:49:40.940Z,28.52
2023-04-18T10:52:11.714Z,28.92
2023-04-18T10:54:51.959Z,29.18
2023-04-18T10:57:19.648Z,30.14
2023-04-18T11:03:08.088Z,30.75
2023-04-18T11:05:40.609Z,30.03
2023-04-18T11:08:25.593Z,30.61
2023-04-18T11:11:00.699Z,32.22
2023-04-18T11:13:30.272Z,30.80
2023-04-18T11:15:57.922Z,30.95
2023-04-18T11:18:25.321Z,30.70
2023-04-18T11:20:53.667Z,31.07
2023-04-18T11:23:25.048Z,30.93
2023-04-18T11:26:09.479Z,30.82
2023-04-18T11:28:36.904Z,31.53
2023-04-18T11:31:17.606Z,31.63
2023-04-18T11:33:52.892Z,31.25
2023-04-18T11:36:21.258Z,30.36
2023-04-18T11:38:58.512Z,30.24
2023-04-18T11:41:26.028Z,30.50
2023-04-18T11:43:53.344Z,30.50
2023-04-18T11:46:20.885Z,31.23
2023-04-18T11:48:50.647Z,32.54
2023-04-18T11:51:35.992Z,31.06
2023-04-18T11:54:04.329Z,31.22
2023-04-18T11:56:33.023Z,31.76
2023-04-18T11:59:08.963Z,31.08
2023-04-18T12:01:36.488Z,31.14
2023-04-18T12:04:05.035Z,30.25
2023-04-18T12:06:48.323Z,30.21
2023-04-18T12:09:23.541Z,29.95
2023-04-18T12:12:08.996Z,30.71
2023-04-18T12:14:38.773Z,31.84
2023-04-18T12:17:06.426Z,32.41
2023-04-18T12:19:51.805Z,32.77
2023-04-18T12:22:42.097Z,33.47
2023-04-18T12:25:13.460Z,33.38
2023-04-18T12:28:17.099Z,32.31
2023-04-18T12:30:54.056Z,31.34
2023-04-18T12:33:51.795Z,30.88
2023-04-18T12:39:26.924Z,30.49
2023-04-18T12:42:07.955Z,30.87
2023-04-18T12:45:04.600Z,31.95
2023-04-18T12:47:46.004Z,31.71
2023-04-18T12:50:29.550Z,31.49
2023-04-18T12:53:03.137Z,31.77
2023-04-18T12:55:31.518Z,31.05
2023-04-18T12:58:19.037Z,31.90
2023-04-18T13:01:00.516Z,30.04
2023-04-18T13:03:32.568Z,30.47
2023-04-18T13:06:10.317Z,30.11
2023-04-18T13:08:50.801Z,30.08
2023-04-18T13:11:24.209Z,30.79
2023-04-18T13:17:53.719Z,29.42
2023-04-18T13:21:00.007Z,29.92
2023-04-18T13:30:43.311Z,29.39
2023-04-18T13:37:02.098Z,29.68
2023-04-18T13:40:39.565Z,29.76
2023-04-18T13:43:52.798Z,30.39
2023-04-18T13:50:09.030Z,31.69
2023-04-18T13:53:28.416Z,31.25
2023-04-18T13:57:14.399Z,31.34
2023-04-18T14:03:41.307Z,31.58
2023-04-18T14:09:25.125Z,31.73
2023-04-18T14:15:20.068Z,31.05
2023-04-18T14:18:39.419Z,31.08
2023-04-18T14:21:35.396Z,31.31
2023-04-18T14:24:13.565Z,31.43
2023-04-18T14:27:09.048Z,31.12
2023-04-18T14:30:12.125Z,29.65
2023-04-18T14:33:47.305Z,30.32
2023-04-18T14:36:30.037Z,29.28
2023-04-18T14:39:31.261Z,27.92
2023-04-18T14:42:30.703Z,28.05
2023-04-18T14:45:30.436Z,26.73
2023-04-18T14:48:22.898Z,28.44
2023-04-18T14:51:23.044Z,28.15
2023-04-18T14:54:43.006Z,28.00
2023-04-18T14:57:31.491Z,29.12
2023-04-18T15:00:48.406Z,29.34
2023-04-18T15:03:39.059Z,29.08
2023-04-18T15:06:36.789Z,30.86
2023-04-18T15:09:57.609Z,30.93
2023-04-18T15:15:56.092Z,29.76
2023-04-18T15:19:21.725Z,30.53
2023-04-18T15:22:11.176Z,29.89
2023-04-18T15:25:05.988Z,30.55
2023-04-18T15:28:39.699Z,30.28
2023-04-18T15:31:26.684Z,30.56
2023-04-18T15:34:07.309Z,31.15
2023-04-18T15:36:43.453Z,30.49
2023-04-18T15:42:22.444Z,31.77
2023-04-18T15:45:33.445Z,31.78
2023-04-18T15:49:11.404Z,31.63
2023-04-18T15:52:13.469Z,31.85
2023-04-18T15:58:22.900Z,31.69
2023-04-18T16:01:09.328Z,31.64
2023-04-18T16:03:48.824Z,32.05
2023-04-18T16:10:08.193Z,33.18
2023-04-18T16:13:01.298Z,33.32
2023-04-18T16:15:52.291Z,32.63
2023-04-18T16:25:31.574Z,34.81
2023-04-18T16:28:36.611Z,36.19
2023-04-18T16:31:16.887Z,37.10
2023-04-18T16:34:01.032Z,37.81
2023-04-18T16:37:10.002Z,37.74
2023-04-18T16:43:30.816Z,38.40
2023-04-18T16:46:26.335Z,38.15
2023-04-18T16:49:22.696Z,38.61
2023-04-18T16:52:16.433Z,38.21
2023-04-18T16:55:17.235Z,39.45
2023-04-18T16:58:18.907Z,39.59
2023-04-18T17:01:14.211Z,39.14
2023-04-18T17:06:54.070Z,39.46
2023-04-18T17:09:44.716Z,39.59
2023-04-18T17:12:41.941Z,40.20
2023-04-18T17:15:25.301Z,39.30
2023-04-18T17:18:24.478Z,39.97
2023-04-18T17:21:10.376Z,40.31
2023-04-18T17:24:31.080Z,39.90
2023-04-18T17:26:59.152Z,40.25
2023-04-18T17:29:26.726Z,40.03
2023-04-18T17:32:00.445Z,41.08
2023-04-18T17:34:32.485Z,41.26
2023-04-18T17:37:00.261Z,44.70
2023-04-18T17:39:36.035Z,46.18
2023-04-18T17:42:11.827Z,42.21
2023-04-18T17:44:54.930Z,44.62
2023-04-18T17:47:59.674Z,43.04
2023-04-18T17:54:13.783Z,45.17
2023-04-18T17:56:59.528Z,46.21
2023-04-18T17:59:58.747Z,48.07
2023-04-18T18:02:55.702Z,49.66
2023-04-18T18:05:54.521Z,48.49
2023-04-18T18:08:27.775Z,48.72
2023-04-18T18:10:55.492Z,49.46
2023-04-18T18:13:23.213Z,50.92
2023-04-18T18:15:51.075Z,52.48
2023-04-18T18:18:30.188Z,51.40
2023-04-18T18:21:00.756Z,50.18
2023-04-18T18:23:31.493Z,52.58
2023-04-18T18:26:02.150Z,52.96
2023-04-18T18:28:29.970Z,53.50
2023-04-18T18:31:05.048Z,55.42
2023-04-18T18:33:41.422Z,54.66
2023-04-18T18:51:57.418Z,59.08
2023-04-18T19:01:30.854Z,60.22
2023-04-18T20:28:03.556Z,64.76
2023-04-18T20:30:38.191Z,66.75
2023-04-18T20:54:49.748Z,67.71
2023-04-18T20:57:20.438Z,67.07
2023-04-18T20:59:49.154Z,66.62
2023-04-18T21:02:16.879Z,67.53
2023-04-18T21:07:44.693Z,67.86
2023-04-18T21:10:15.331Z,67.63
2023-04-18T21:12:47.125Z,68.62
2023-04-18T21:15:14.818Z,68.76
2023-04-18T21:17:50.120Z,68.17
2023-04-18T21:20:20.614Z,68.31
2023-04-18T21:22:58.917Z,68.11
2023-04-18T21:25:26.717Z,68.56
2023-04-18T21:27:54.386Z,66.10
2023-04-18T21:30:27.697Z,65.31
2023-04-18T21:33:25.141Z,65.29
2023-04-18T21:35:55.094Z,65.53
2023-04-18T21:38:27.766Z,65.82
2023-04-18T21:40:57.219Z,64.42
2023-04-18T21:43:28.210Z,63.53
2023-04-18T21:45:59.312Z,64.27
2023-04-18T21:48:29.777Z,64.77
2023-04-18T21:50:58.412Z,65.31
2023-04-18T21:53:26.043Z,64.44
2023-04-18T21:55:53.610Z,64.56
2023-04-18T21:58:22.479Z,63.58
2023-04-18T22:00:59.434Z,64.34
2023-04-18T22:03:29.149Z,63.31
2023-04-18T22:06:02.268Z,64.12
2023-04-18T22:08:54.146Z,64.28
2023-04-18T22:11:27.219Z,64.47
2023-04-18T22:14:03.105Z,64.43
2023-04-18T22:16:54.429Z,67.15
2023-04-18T22:19:29.642Z,67.33
2023-04-18T22:22:00.335Z,68.16
2023-04-18T22:24:47.519Z,68.96
2023-04-18T22:27:25.261Z,69.48
2023-04-18T22:29:55.119Z,68.82
2023-04-18T22:32:41.790Z,70.74
2023-04-18T22:35:31.434Z,69.91
2023-04-18T22:38:04.692Z,70.45
2023-04-18T22:40:57.303Z,70.89
2023-04-18T22:43:29.775Z,71.65
2023-04-18T22:46:04.999Z,71.05
2023-04-18T22:48:40.368Z,70.95
2023-04-18T22:51:23.521Z,71.83
2023-04-18T22:54:04.973Z,71.83
2023-04-18T22:57:02.382Z,72.09
2023-04-18T22:59:30.195Z,72.09
2023-04-18T23:02:11.921Z,72.51
2023-04-18T23:04:46.353Z,73.28
2023-04-18T23:09:55.743Z,72.84
2023-04-18T23:12:31.626Z,71.93
2023-04-18T23:15:34.108Z,73.55
2023-04-18T23:21:01.532Z,73.13
2023-04-18T23:23:31.869Z,72.58
2023-04-18T23:28:43.264Z,74.97
2023-04-18T23:31:44.070Z,74.15
2023-04-18T23:34:11.904Z,73.94
2023-04-18T23:36:50.277Z,73.70
2023-04-18T23:39:30.769Z,73.82
2023-04-18T23:42:28.832Z,73.85
2023-04-18T23:45:12.785Z,74.73
2023-04-18T23:48:05.727Z,73.58
2023-04-18T23:50:57.289Z,74.40
2023-04-18T23:53:53.914Z,73.16
2023-04-18T23:56:26.227Z,73.00
2023-04-18T23:59:10.241Z,73.87
